Time;durP1;ratioP1;P1;durP2;ratioP2;P2;SDS_P1;SDS_P2;PMS_P1;PMS_P2;Temp;Humidity;BMP_temperature;BMP_pressure;BME280_temperature;BME280_humidity;BME280_pressure;Samples;Min_cycle;Max_cycle;Signal;HPM_P1;HPM_P2
2023/03/25 00:00:47;;;;;;;0.20;0.20;;;8.80;99.90;;;;;;5015758;28;20282;-75
2023/03/25 00:03:16;;;;;;;0.20;0.20;;;8.80;99.90;;;;;;5015964;28;20018;-75
2023/03/25 00:05:42;;;;;;;0.13;0.13;;;8.80;99.90;;;;;;5013997;28;20372;-75
2023/03/25 00:08:07;;;;;;;0.20;0.20;;;8.80;99.90;;;;;;5014190;28;20097;-75
2023/03/25 00:10:33;;;;;;;0.20;0.20;;;8.80;99.90;;;;;;5015801;28;20033;-74
2023/03/25 00:13:03;;;;;;;0.10;0.10;;;8.90;99.90;;;;;;5015776;28;20080;-75
2023/03/25 00:15:32;;;;;;;0.20;0.20;;;8.90;99.90;;;;;;5015124;28;20056;-75
2023/03/25 00:17:58;;;;;;;0.20;0.20;;;8.90;99.90;;;;;;5015437;28;20022;-75
2023/03/25 00:20:24;;;;;;;0.20;0.20;;;8.90;99.90;;;;;;5015285;28;20030;-75
2023/03/25 00:22:50;;;;;;;0.10;0.10;;;8.90;99.90;;;;;;5015347;28;20053;-75
2023/03/25 00:25:17;;;;;;;0.20;0.20;;;8.90;99.90;;;;;;5015028;28;20033;-75
2023/03/25 00:27:45;;;;;;;0.20;0.20;;;8.90;99.90;;;;;;5015131;28;20021;-74
2023/03/25 00:30:11;;;;;;;0.20;0.20;;;8.90;99.90;;;;;;5015253;28;20026;-75
2023/03/25 00:32:38;;;;;;;0.20;0.20;;;8.90;99.90;;;;;;5014986;28;20075;-74
2023/03/25 00:35:04;;;;;;;0.20;0.20;;;8.90;99.90;;;;;;5014556;28;20029;-75
2023/03/25 00:37:30;;;;;;;0.10;0.10;;;8.90;99.90;;;;;;5015183;28;20454;-75
2023/03/25 00:39:55;;;;;;;0.20;0.20;;;8.90;99.90;;;;;;5013448;28;20029;-75
2023/03/25 00:42:24;;;;;;;0.20;0.20;;;8.90;99.90;;;;;;5014986;28;20365;-75
2023/03/25 00:44:51;;;;;;;0.20;0.20;;;8.90;99.90;;;;;;5013510;28;20056;-75
2023/03/25 00:47:17;;;;;;;0.20;0.20;;;8.90;99.90;;;;;;5014511;28;20032;-75
2023/03/25 00:49:43;;;;;;;0.10;0.10;;;8.90;99.90;;;;;;5014236;28;20105;-75
2023/03/25 00:52:09;;;;;;;0.20;0.20;;;9.00;99.90;;;;;;5014664;28;20034;-75
2023/03/25 00:54:36;;;;;;;0.10;0.10;;;9.00;99.90;;;;;;5013451;28;20033;-75
2023/03/25 00:57:02;;;;;;;0.20;0.20;;;8.90;99.90;;;;;;5013963;28;20026;-74
2023/03/25 00:59:28;;;;;;;0.10;0.10;;;8.90;99.90;;;;;;5014196;28;20026;-75
2023/03/25 01:01:55;;;;;;;0.20;0.20;;;8.80;99.90;;;;;;5013262;28;20029;-75
2023/03/25 01:04:20;;;;;;;0.10;0.10;;;8.60;99.90;;;;;;5013782;28;20388;-74
2023/03/25 01:06:50;;;;;;;0.10;0.10;;;8.50;99.90;;;;;;5009669;28;20018;-75
2023/03/25 01:09:17;;;;;;;0.20;0.20;;;8.50;99.90;;;;;;5014301;28;20438;-75
2023/03/25 01:11:44;;;;;;;0.20;0.20;;;8.40;99.90;;;;;;5014403;28;20157;-75
2023/03/25 01:14:22;;;;;;;0.20;0.20;;;8.40;99.90;;;;;;5013933;28;20510;-75
2023/03/25 01:16:48;;;;;;;0.15;0.15;;;8.50;99.90;;;;;;5014277;28;20026;-75
2023/03/25 01:19:14;;;;;;;0.20;0.20;;;8.50;99.90;;;;;;5013429;28;20368;-75
2023/03/25 01:21:40;;;;;;;0.20;0.20;;;8.40;99.90;;;;;;5014282;28;20097;-75
2023/03/25 01:24:07;;;;;;;0.10;0.10;;;8.50;99.90;;;;;;5009297;28;20387;-75
2023/03/25 01:26:33;;;;;;;0.20;0.20;;;8.50;99.90;;;;;;4994944;28;20101;-74
2023/03/25 01:28:59;;;;;;;0.13;0.13;;;8.50;99.90;;;;;;4993902;28;20165;-74
2023/03/25 01:31:28;;;;;;;0.20;0.20;;;8.60;99.90;;;;;;5014282;28;20113;-75
2023/03/25 01:33:55;;;;;;;0.20;0.20;;;8.50;99.90;;;;;;5012422;28;20080;-75
2023/03/25 01:36:23;;;;;;;0.20;0.20;;;8.60;99.90;;;;;;5014126;28;20026;-74
2023/03/25 01:38:49;;;;;;;0.10;0.10;;;8.50;99.90;;;;;;5012169;28;20022;-74
2023/03/25 01:41:16;;;;;;;0.20;0.20;;;8.40;99.90;;;;;;5013247;28;20056;-74
2023/03/25 01:43:59;;;;;;;0.20;0.20;;;8.40;99.90;;;;;;5013869;28;20026;-74
2023/03/25 01:46:24;;;;;;;0.20;0.20;;;8.40;99.90;;;;;;5013867;28;20029;-74
2023/03/25 01:48:50;;;;;;;0.20;0.20;;;8.40;99.90;;;;;;5012502;28;20280;-74
2023/03/25 01:51:19;;;;;;;0.20;0.20;;;8.30;99.90;;;;;;5013044;28;20030;-74
2023/03/25 01:53:45;;;;;;;0.20;0.20;;;8.30;99.90;;;;;;5013836;28;20495;-74
2023/03/25 01:56:16;;;;;;;0.20;0.20;;;8.30;99.90;;;;;;5012271;28;20053;-74
2023/03/25 01:58:43;;;;;;;0.20;0.20;;;8.30;99.90;;;;;;5013538;28;20411;-74
2023/03/25 02:01:12;;;;;;;0.10;0.10;;;8.30;99.90;;;;;;5012841;28;20022;-74
2023/03/25 02:03:44;;;;;;;0.20;0.20;;;8.40;99.90;;;;;;5011871;28;20026;-74
2023/03/25 02:06:17;;;;;;;0.13;0.13;;;8.40;99.90;;;;;;5013326;28;20029;-74
2023/03/25 02:08:43;;;;;;;0.20;0.20;;;8.50;99.90;;;;;;5013610;28;20558;-74
2023/03/25 02:11:09;;;;;;;0.10;0.10;;;8.60;99.90;;;;;;5013631;28;20161;-74
2023/03/25 02:13:39;;;;;;;0.20;0.20;;;8.60;99.90;;;;;;5013583;28;20022;-74
2023/03/25 02:16:22;;;;;;;0.20;0.20;;;8.60;99.90;;;;;;5013067;28;20030;-74
2023/03/25 02:19:19;;;;;;;0.20;0.20;;;8.60;99.90;;;;;;5013873;28;20484;-74
2023/03/25 02:22:01;;;;;;;0.10;0.10;;;8.60;99.90;;;;;;5013199;28;20054;-74
2023/03/25 02:25:03;;;;;;;0.20;0.20;;;8.50;99.90;;;;;;5013841;28;20084;-74
2023/03/25 02:27:59;;;;;;;0.20;0.20;;;8.40;99.90;;;;;;5011680;28;20028;-73
2023/03/25 02:30:45;;;;;;;0.20;0.20;;;8.30;99.90;;;;;;5002701;28;20030;-74
2023/03/25 02:33:28;;;;;;;0.20;0.20;;;8.30;99.90;;;;;;5013098;28;20045;-74
2023/03/25 02:36:17;;;;;;;0.20;0.20;;;8.20;99.90;;;;;;5013317;28;20022;-74
2023/03/25 02:39:16;;;;;;;0.13;0.13;;;8.20;99.90;;;;;;5012423;28;20029;-74
2023/03/25 02:41:53;;;;;;;0.20;0.20;;;8.30;99.90;;;;;;5013124;28;20436;-74
2023/03/25 02:44:47;;;;;;;0.20;0.20;;;8.20;99.90;;;;;;5012959;28;20080;-74
2023/03/25 02:47:17;;;;;;;0.20;0.20;;;8.20;99.90;;;;;;5005494;28;20411;-74
2023/03/25 02:49:49;;;;;;;0.20;0.20;;;8.20;99.90;;;;;;5012069;28;20277;-74
2023/03/25 02:52:37;;;;;;;0.20;0.20;;;8.20;99.90;;;;;;5012977;28;20073;-74
2023/03/25 02:55:09;;;;;;;0.20;0.20;;;8.20;99.90;;;;;;5012836;28;20163;-74
2023/03/25 02:57:40;;;;;;;0.13;0.13;;;8.20;99.90;;;;;;5012406;28;20372;-73
2023/03/25 03:00:14;;;;;;;0.20;0.20;;;8.20;99.90;;;;;;5012839;28;20111;-74
2023/03/25 03:02:42;;;;;;;;;;;8.10;99.90;;;;;;5013582;28;20076;-74
2023/03/25 03:05:42;;;;;;;0.20;0.20;;;8.20;99.90;;;;;;5011455;28;19956;-74
2023/03/25 03:08:35;;;;;;;0.20;0.20;;;8.20;99.90;;;;;;4990906;28;20084;-74
2023/03/25 03:11:09;;;;;;;0.20;0.20;;;8.20;99.90;;;;;;5011244;28;20556;-74
2023/03/25 03:13:59;;;;;;;0.17;0.17;;;8.20;99.90;;;;;;5014795;28;20032;-74
2023/03/25 03:17:07;;;;;;;0.10;0.10;;;8.20;99.90;;;;;;5016619;28;20050;-74
2023/03/25 03:19:45;;;;;;;0.20;0.20;;;8.20;99.90;;;;;;4974689;28;20089;-74
2023/03/25 03:22:19;;;;;;;0.10;0.10;;;8.20;99.90;;;;;;5011760;28;20076;-74
2023/03/25 03:24:52;;;;;;;0.10;0.10;;;8.20;99.90;;;;;;5016419;28;20026;-74
2023/03/25 03:27:32;;;;;;;0.20;0.20;;;8.20;99.90;;;;;;5016408;28;20026;-74
2023/03/25 03:30:09;;;;;;;0.17;0.17;;;8.20;99.90;;;;;;5014929;28;20178;-74
2023/03/25 03:32:53;;;;;;;0.20;0.20;;;8.20;99.90;;;;;;5016106;28;20025;-74
2023/03/25 03:35:37;;;;;;;0.10;0.10;;;8.20;99.90;;;;;;5016636;28;20057;-74
2023/03/25 03:38:08;;;;;;;0.20;0.20;;;8.30;99.90;;;;;;5016220;28;20026;-74
2023/03/25 03:40:36;;;;;;;0.10;0.10;;;8.30;99.90;;;;;;5014699;28;20040;-74
2023/03/25 03:43:03;;;;;;;0.10;0.10;;;8.30;99.90;;;;;;5016090;28;20452;-74
2023/03/25 03:45:51;;;;;;;0.20;0.20;;;8.30;99.90;;;;;;5015878;28;20048;-74
2023/03/25 03:48:31;;;;;;;0.10;0.10;;;8.30;99.90;;;;;;5015339;28;20018;-74
2023/03/25 03:51:06;;;;;;;0.20;0.20;;;8.40;99.90;;;;;;5015614;28;20021;-74
2023/03/25 03:54:03;;;;;;;0.20;0.20;;;8.30;99.90;;;;;;5016159;28;20021;-74
2023/03/25 03:56:46;;;;;;;0.10;0.10;;;8.30;99.90;;;;;;5015377;28;20069;-74
2023/03/25 03:59:26;;;;;;;0.20;0.20;;;8.30;99.90;;;;;;5015555;28;20026;-74
2023/03/25 04:01:57;;;;;;;0.10;0.10;;;8.30;99.90;;;;;;5016101;28;20034;-74
2023/03/25 04:04:25;;;;;;;0.17;0.17;;;8.30;99.90;;;;;;5014352;28;20022;-74
2023/03/25 04:07:09;;;;;;;0.15;0.15;;;8.30;99.90;;;;;;5016218;28;20619;-74
2023/03/25 04:10:01;;;;;;;0.20;0.20;;;8.20;99.90;;;;;;5015084;28;20036;-74
2023/03/25 04:12:29;;;;;;;0.20;0.20;;;8.20;99.90;;;;;;5014541;28;20030;-74
2023/03/25 04:14:55;;;;;;;0.10;0.10;;;8.20;99.90;;;;;;5015684;28;20333;-74
2023/03/25 04:17:23;;;;;;;0.10;0.10;;;8.20;99.90;;;;;;5015707;28;20479;-74
2023/03/25 04:19:52;;;;;;;0.15;0.15;;;8.20;99.90;;;;;;5013328;28;20057;-74
2023/03/25 04:22:18;;;;;;;0.13;0.13;;;8.20;99.90;;;;;;5015429;28;20021;-74
2023/03/25 04:24:44;;;;;;;0.20;0.20;;;8.20;99.90;;;;;;5013806;28;20401;-74
2023/03/25 04:27:12;;;;;;;0.10;0.10;;;8.20;99.90;;;;;;5015162;28;20026;-74
2023/03/25 04:29:39;;;;;;;0.10;0.10;;;8.20;99.90;;;;;;5013938;28;20140;-74
2023/03/25 04:32:05;;;;;;;0.10;0.10;;;8.20;99.90;;;;;;5014835;28;20105;-74
2023/03/25 04:34:31;;;;;;;0.20;0.20;;;8.20;99.90;;;;;;5014927;28;20105;-74
2023/03/25 04:36:57;;;;;;;0.10;0.10;;;8.20;99.90;;;;;;5015096;28;20029;-74
2023/03/25 04:39:23;;;;;;;0.20;0.20;;;8.20;99.90;;;;;;5013350;28;20037;-74
2023/03/25 04:41:49;;;;;;;0.17;0.17;;;8.20;99.90;;;;;;5015325;28;20097;-74
2023/03/25 04:44:20;;;;;;;0.20;0.20;;;8.20;99.90;;;;;;5014922;28;20021;-74
2023/03/25 04:46:46;;;;;;;0.20;0.20;;;8.20;99.90;;;;;;5014562;28;20029;-74
2023/03/25 04:49:19;;;;;;;0.13;0.13;;;8.20;99.90;;;;;;5013175;28;20412;-74
2023/03/25 04:51:48;;;;;;;0.20;0.20;;;8.20;99.90;;;;;;5014910;28;20022;-73
2023/03/25 04:54:14;;;;;;;0.10;0.10;;;8.20;99.90;;;;;;5014930;28;20026;-74
2023/03/25 04:56:39;;;;;;;0.10;0.10;;;8.20;99.90;;;;;;5014647;28;20056;-74
2023/03/25 04:59:05;;;;;;;0.10;0.10;;;8.20;99.90;;;;;;5014177;28;20030;-74
2023/03/25 05:01:31;;;;;;;0.10;0.10;;;8.20;99.90;;;;;;5014701;28;20030;-74
2023/03/25 05:04:03;;;;;;;0.10;0.10;;;8.20;99.90;;;;;;5014284;28;20018;-74
2023/03/25 05:06:34;;;;;;;0.20;0.20;;;8.20;99.90;;;;;;5014027;28;20017;-74
2023/03/25 05:09:00;;;;;;;0.15;0.15;;;8.20;99.90;;;;;;5014780;28;20439;-74
2023/03/25 05:11:27;;;;;;;0.20;0.20;;;8.20;99.90;;;;;;5014029;28;20049;-74
2023/03/25 05:13:54;;;;;;;0.20;0.20;;;8.10;99.90;;;;;;5014337;28;20042;-74
2023/03/25 05:16:19;;;;;;;0.20;0.20;;;8.10;99.90;;;;;;5013525;28;20026;-74
2023/03/25 05:18:45;;;;;;;0.20;0.20;;;8.20;99.90;;;;;;5014325;28;20506;-74
2023/03/25 05:21:11;;;;;;;0.13;0.13;;;8.10;99.90;;;;;;5013568;28;20018;-74
2023/03/25 05:23:37;;;;;;;0.10;0.10;;;8.10;99.90;;;;;;5014312;28;20072;-74
2023/03/25 05:26:03;;;;;;;0.10;0.10;;;8.10;99.90;;;;;;5014192;28;20030;-74
2023/03/25 05:28:29;;;;;;;0.10;0.10;;;8.10;99.90;;;;;;5012728;28;20022;-74
2023/03/25 05:30:56;;;;;;;0.10;0.10;;;8.10;99.90;;;;;;5012731;28;20026;-74
2023/03/25 05:33:22;;;;;;;0.17;0.17;;;8.10;99.90;;;;;;5012164;28;20546;-74
2023/03/25 05:35:48;;;;;;;0.17;0.17;;;8.10;99.90;;;;;;5013483;28;20026;-74
2023/03/25 05:38:20;;;;;;;0.17;0.17;;;8.00;99.90;;;;;;5012173;28;20029;-74
2023/03/25 05:40:47;;;;;;;0.15;0.15;;;8.00;99.90;;;;;;5012677;28;20022;-74
2023/03/25 05:43:14;;;;;;;0.20;0.20;;;7.90;99.90;;;;;;5013751;28;20488;-74
2023/03/25 05:45:41;;;;;;;0.20;0.20;;;7.90;99.90;;;;;;5013921;28;20088;-75
2023/03/25 05:48:07;;;;;;;0.20;0.20;;;7.90;99.90;;;;;;5013282;28;20029;-74
2023/03/25 05:50:33;;;;;;;0.10;0.10;;;7.90;99.90;;;;;;5013591;28;20503;-74
2023/03/25 05:52:59;;;;;;;0.20;0.20;;;7.90;99.90;;;;;;5013855;28;20502;-74
2023/03/25 05:55:26;;;;;;;0.20;0.20;;;7.80;99.90;;;;;;5012557;28;20026;-74
2023/03/25 05:57:52;;;;;;;0.20;0.20;;;7.80;99.90;;;;;;5013154;28;20096;-73
2023/03/25 06:00:20;;;;;;;0.20;0.20;;;7.90;99.90;;;;;;5013542;28;20038;-74
2023/03/25 06:02:47;;;;;;;0.20;0.20;;;7.80;99.90;;;;;;5012063;28;20129;-74
2023/03/25 06:05:14;;;;;;;0.20;0.20;;;7.90;99.90;;;;;;5013630;28;20018;-74
2023/03/25 06:07:44;;;;;;;0.10;0.10;;;7.90;99.90;;;;;;5012237;28;20497;-74
2023/03/25 06:10:11;;;;;;;0.20;0.20;;;7.90;99.90;;;;;;5013379;28;20391;-74
2023/03/25 06:12:37;;;;;;;0.10;0.10;;;8.00;99.90;;;;;;5013575;28;20037;-74
2023/03/25 06:15:08;;;;;;;0.10;0.10;;;8.00;99.90;;;;;;5013237;28;20603;-74
2023/03/25 06:17:37;;;;;;;0.10;0.10;;;8.00;99.90;;;;;;5012793;28;20034;-74
2023/03/25 06:20:09;;;;;;;0.20;0.20;;;8.00;99.90;;;;;;5013443;28;20113;-74
2023/03/25 06:22:41;;;;;;;0.10;0.10;;;8.00;99.90;;;;;;5013244;28;20606;-74
2023/03/25 06:25:08;;;;;;;0.20;0.20;;;8.00;99.90;;;;;;5012828;28;20582;-75
2023/03/25 06:27:39;;;;;;;0.15;0.15;;;8.10;99.90;;;;;;5012876;28;20048;-74
2023/03/25 06:30:06;;;;;;;0.10;0.10;;;8.20;99.90;;;;;;5013380;28;20029;-74
2023/03/25 06:32:32;;;;;;;0.15;0.15;;;8.20;99.90;;;;;;5012981;28;20045;-74
2023/03/25 06:34:57;;;;;;;0.15;0.15;;;8.10;99.90;;;;;;5012827;28;20387;-74
2023/03/25 06:37:25;;;;;;;0.20;0.20;;;8.10;99.90;;;;;;5012913;28;20050;-74
2023/03/25 06:39:55;;;;;;;0.20;0.20;;;8.10;99.90;;;;;;5013193;28;20438;-74
2023/03/25 06:42:27;;;;;;;0.10;0.10;;;8.10;99.90;;;;;;5013017;28;20021;-74
2023/03/25 06:44:54;;;;;;;0.17;0.17;;;8.10;99.90;;;;;;5013073;28;20034;-74
2023/03/25 06:47:20;;;;;;;0.10;0.10;;;8.10;99.90;;;;;;5013573;28;20033;-74
2023/03/25 06:49:45;;;;;;;0.10;0.10;;;8.20;99.90;;;;;;5016751;28;20037;-74
2023/03/25 06:52:11;;;;;;;0.17;0.17;;;8.20;99.90;;;;;;5017036;28;20026;-74
2023/03/25 06:54:37;;;;;;;0.20;0.20;;;8.30;99.90;;;;;;5016699;28;20072;-74
2023/03/25 06:57:03;;;;;;;0.20;0.20;;;8.40;99.90;;;;;;5016812;28;20029;-75
2023/03/25 06:59:29;;;;;;;0.10;0.10;;;8.40;99.90;;;;;;5016642;28;20041;-74
2023/03/25 07:01:54;;;;;;;0.15;0.15;;;8.40;99.90;;;;;;5015745;28;20022;-74
2023/03/25 07:04:20;;;;;;;0.20;0.20;;;8.40;99.90;;;;;;5016211;28;20067;-74
2023/03/25 07:06:45;;;;;;;0.10;0.10;;;8.50;99.90;;;;;;5017010;28;20026;-75
2023/03/25 07:09:11;;;;;;;0.10;0.10;;;8.50;99.90;;;;;;5016592;28;20033;-74
2023/03/25 07:11:37;;;;;;;0.10;0.10;;;8.50;99.90;;;;;;5016639;28;20029;-74
2023/03/25 07:14:02;;;;;;;0.20;0.20;;;8.50;99.90;;;;;;5016175;28;20038;-74
2023/03/25 07:16:30;;;;;;;0.10;0.10;;;8.70;99.90;;;;;;5015381;28;20372;-74
2023/03/25 07:18:56;;;;;;;0.10;0.10;;;8.70;99.90;;;;;;5015487;28;20036;-74
2023/03/25 07:21:22;;;;;;;0.15;0.15;;;8.70;99.90;;;;;;5014402;28;20030;-74
2023/03/25 07:23:47;;;;;;;0.17;0.17;;;8.70;99.90;;;;;;5016446;28;20018;-75
2023/03/25 07:26:13;;;;;;;0.20;0.20;;;8.70;99.90;;;;;;5016186;28;20392;-74
2023/03/25 07:28:39;;;;;;;0.17;0.17;;;8.70;99.90;;;;;;5016419;28;20032;-75
2023/03/25 07:31:12;;;;;;;0.10;0.10;;;8.70;99.90;;;;;;5015073;28;20506;-74
2023/03/25 07:33:38;;;;;;;0.15;0.15;;;8.60;99.90;;;;;;5015722;28;20034;-74
2023/03/25 07:36:05;;;;;;;0.20;0.20;;;8.60;99.90;;;;;;5016678;28;20029;-74
2023/03/25 07:38:31;;;;;;;0.13;0.13;;;8.60;99.90;;;;;;5016011;28;20032;-74
2023/03/25 07:40:57;;;;;;;0.17;0.17;;;8.60;99.90;;;;;;5016227;28;20030;-75
2023/03/25 07:43:23;;;;;;;0.20;0.20;;;8.60;99.90;;;;;;5015833;28;20045;-74
2023/03/25 07:45:49;;;;;;;0.17;0.17;;;8.60;99.90;;;;;;5015853;28;20030;-75
2023/03/25 07:48:15;;;;;;;0.10;0.10;;;8.70;99.90;;;;;;5014743;28;20549;-74
2023/03/25 07:50:41;;;;;;;0.10;0.10;;;8.60;99.90;;;;;;5015798;28;20102;-74
2023/03/25 07:53:07;;;;;;;0.20;0.20;;;8.60;99.90;;;;;;5015447;28;20526;-74
2023/03/25 07:55:33;;;;;;;0.20;0.20;;;8.70;99.90;;;;;;5015861;28;20030;-74
2023/03/25 07:58:00;;;;;;;0.20;0.20;;;8.70;99.90;;;;;;5015826;28;20022;-74
2023/03/25 08:00:26;;;;;;;0.10;0.10;;;8.80;99.90;;;;;;5013322;28;20018;-74
2023/03/25 08:02:52;;;;;;;0.10;0.10;;;8.80;99.90;;;;;;5013955;28;20034;-72
2023/03/25 08:05:20;;;;;;;0.17;0.17;;;8.90;99.90;;;;;;5015907;28;20028;-72
2023/03/25 08:07:50;;;;;;;0.10;0.10;;;9.00;99.90;;;;;;5015568;28;20028;-72
2023/03/25 08:10:16;;;;;;;0.20;0.20;;;8.90;99.90;;;;;;5015873;28;20026;-73
2023/03/25 08:12:43;;;;;;;0.20;0.20;;;9.00;99.90;;;;;;5015461;28;20059;-73
2023/03/25 08:15:10;;;;;;;0.20;0.20;;;8.90;99.90;;;;;;5015303;28;20022;-73
2023/03/25 08:17:36;;;;;;;0.20;0.20;;;8.90;99.90;;;;;;5015628;28;20541;-73
2023/03/25 08:20:04;;;;;;;0.10;0.10;;;8.80;99.90;;;;;;5015429;28;20037;-73
2023/03/25 08:22:29;;;;;;;0.20;0.20;;;8.80;99.90;;;;;;5015136;28;20018;-74
2023/03/25 08:24:55;;;;;;;0.20;0.20;;;8.70;99.90;;;;;;5015325;28;20032;-74
2023/03/25 08:27:21;;;;;;;0.20;0.20;;;8.50;99.90;;;;;;5015380;28;20022;-74
2023/03/25 08:29:56;;;;;;;0.20;0.20;;;8.60;99.90;;;;;;5013629;28;20400;-74
2023/03/25 08:32:22;;;;;;;0.10;0.10;;;8.60;99.90;;;;;;5015366;28;20026;-74
2023/03/25 08:34:48;;;;;;;0.20;0.20;;;8.60;99.90;;;;;;5014398;28;20041;-74
2023/03/25 08:37:14;;;;;;;0.20;0.20;;;8.70;99.90;;;;;;5015220;28;20025;-74
2023/03/25 08:39:40;;;;;;;0.10;0.10;;;8.60;99.90;;;;;;5013789;28;20080;-74
2023/03/25 08:42:07;;;;;;;0.20;0.20;;;8.60;99.90;;;;;;5014872;28;20068;-74
2023/03/25 08:44:33;;;;;;;0.10;0.10;;;8.50;99.90;;;;;;5013724;28;20032;-74
2023/03/25 08:46:59;;;;;;;0.10;0.10;;;8.50;99.90;;;;;;5014557;28;20408;-74
2023/03/25 08:49:25;;;;;;;0.10;0.10;;;8.50;99.90;;;;;;5015017;28;20084;-74
2023/03/25 08:51:50;;;;;;;0.10;0.10;;;8.50;99.90;;;;;;5014659;28;20018;-74
2023/03/25 08:54:16;;;;;;;0.17;0.17;;;8.70;99.90;;;;;;5014831;28;20026;-74
2023/03/25 08:56:41;;;;;;;0.20;0.20;;;8.80;99.90;;;;;;5014543;28;20049;-75
2023/03/25 08:59:07;;;;;;;0.10;0.10;;;8.90;99.90;;;;;;5014236;28;20030;-74
2023/03/25 09:01:32;;;;;;;0.20;0.20;;;8.90;99.90;;;;;;5014738;28;20404;-74
2023/03/25 09:03:58;;;;;;;0.10;0.10;;;9.00;99.90;;;;;;5014565;28;20028;-73
2023/03/25 09:06:24;;;;;;;0.10;0.10;;;9.00;99.90;;;;;;5014773;28;20033;-74
2023/03/25 09:08:51;;;;;;;0.15;0.15;;;9.00;99.90;;;;;;5014207;28;20022;-74
2023/03/25 09:11:16;;;;;;;0.10;0.10;;;8.90;99.90;;;;;;5013065;28;20109;-74
2023/03/25 09:13:42;;;;;;;0.13;0.13;;;8.80;99.90;;;;;;5013824;28;20109;-74
2023/03/25 09:16:08;;;;;;;0.20;0.20;;;8.70;99.90;;;;;;5014534;28;20026;-74
2023/03/25 09:18:35;;;;;;;0.10;0.10;;;8.70;99.90;;;;;;5013879;28;20037;-74
2023/03/25 09:21:01;;;;;;;0.10;0.10;;;8.80;99.90;;;;;;5014309;28;20028;-74
2023/03/25 09:23:27;;;;;;;0.20;0.20;;;8.90;99.90;;;;;;5014147;28;20055;-74
2023/03/25 09:25:58;;;;;;;0.20;0.20;;;8.90;99.90;;;;;;5014175;28;20026;-73
2023/03/25 09:28:24;;;;;;;0.15;0.15;;;8.80;99.90;;;;;;5012335;28;20056;-73
2023/03/25 09:30:49;;;;;;;0.20;0.20;;;8.90;99.90;;;;;;5014172;28;20022;-73
2023/03/25 09:33:15;;;;;;;0.10;0.10;;;9.10;99.90;;;;;;5014051;28;20034;-74
2023/03/25 09:35:41;;;;;;;0.20;0.20;;;9.20;99.90;;;;;;5014284;28;20399;-73
2023/03/25 09:38:06;;;;;;;0.10;0.10;;;9.30;99.90;;;;;;5014037;28;20057;-74
2023/03/25 09:40:33;;;;;;;0.10;0.10;;;9.50;99.90;;;;;;5012223;28;20398;-74
2023/03/25 09:43:27;;;;;;;0.10;0.10;;;9.60;99.90;;;;;;5014029;28;20105;-74
2023/03/25 09:45:54;;;;;;;;;;;9.60;99.90;;;;;;4992722;28;20048;-74
2023/03/25 09:48:42;;;;;;;0.20;0.20;;;9.50;99.90;;;;;;5013620;28;19905;-74
2023/03/25 09:51:25;;;;;;;0.10;0.10;;;9.50;99.90;;;;;;5013177;28;20042;-74
2023/03/25 09:54:13;;;;;;;0.20;0.20;;;9.40;99.90;;;;;;4994420;28;20102;-74
2023/03/25 09:56:41;;;;;;;0.20;0.20;;;9.30;99.90;;;;;;4993808;28;20423;-73
2023/03/25 09:59:13;;;;;;;0.20;0.20;;;9.00;99.90;;;;;;4994553;28;20034;-74
2023/03/25 10:01:47;;;;;;;0.20;0.20;;;9.10;99.90;;;;;;5013606;28;20076;-73
2023/03/25 10:04:50;;;;;;;0.20;0.20;;;9.30;99.90;;;;;;5012164;28;20018;-73
2023/03/25 10:07:39;;;;;;;0.20;0.20;;;9.50;99.90;;;;;;5013554;28;20049;-74
2023/03/25 10:10:38;;;;;;;0.20;0.20;;;9.40;99.90;;;;;;5011463;28;20033;-73
2023/03/25 10:13:35;;;;;;;0.20;0.20;;;9.30;99.90;;;;;;5013661;28;20116;-74
2023/03/25 10:16:20;;;;;;;0.20;0.20;;;9.40;99.90;;;;;;5013267;28;20026;-74
2023/03/25 10:19:04;;;;;;;0.10;0.10;;;9.50;99.90;;;;;;5013408;28;20022;-74
2023/03/25 10:21:59;;;;;;;0.15;0.15;;;9.50;99.90;;;;;;5013126;28;20022;-73
2023/03/25 10:24:38;;;;;;;0.10;0.10;;;9.70;99.90;;;;;;5013274;28;20018;-73
2023/03/25 10:27:36;;;;;;;0.10;0.10;;;9.80;99.90;;;;;;5012987;28;20021;-73
2023/03/25 10:30:04;;;;;;;0.13;0.13;;;9.90;99.90;;;;;;5012195;28;20022;-73
2023/03/25 10:32:59;;;;;;;0.20;0.20;;;9.90;99.90;;;;;;5013019;28;20026;-73
2023/03/25 10:35:28;;;;;;;0.20;0.20;;;9.60;99.90;;;;;;5011623;28;20149;-73
2023/03/25 10:37:59;;;;;;;0.20;0.20;;;9.50;99.90;;;;;;5013074;28;20025;-73
2023/03/25 10:40:35;;;;;;;0.20;0.20;;;9.60;99.90;;;;;;5011877;28;20028;-73
2023/03/25 10:43:26;;;;;;;0.10;0.10;;;9.70;99.90;;;;;;5012806;28;20511;-73
2023/03/25 10:45:55;;;;;;;0.20;0.20;;;10.00;99.90;;;;;;5012449;28;20487;-73
2023/03/25 10:48:24;;;;;;;0.20;0.20;;;9.90;99.90;;;;;;5012795;28;20476;-73
2023/03/25 10:50:52;;;;;;;0.20;0.20;;;9.90;99.90;;;;;;5013235;28;20038;-73
2023/03/25 10:53:26;;;;;;;0.20;0.20;;;9.80;99.90;;;;;;5012428;28;20080;-73
2023/03/25 10:56:10;;;;;;;0.20;0.20;;;9.70;99.90;;;;;;5012762;28;20028;-73
2023/03/25 10:58:38;;;;;;;0.20;0.20;;;9.80;99.90;;;;;;5012833;28;20048;-73
2023/03/25 11:01:12;;;;;;;0.20;0.20;;;9.90;99.90;;;;;;5012819;28;20037;-73
2023/03/25 11:03:39;;;;;;;0.20;0.20;;;9.90;99.90;;;;;;5013016;28;20021;-73
2023/03/25 11:06:05;;;;;;;0.10;0.10;;;9.90;99.90;;;;;;4992205;28;20026;-73
2023/03/25 11:08:31;;;;;;;0.20;0.20;;;10.00;99.90;;;;;;4992499;28;20028;-74
2023/03/25 11:10:58;;;;;;;0.10;0.10;;;9.90;99.90;;;;;;4993360;28;20105;-74
2023/03/25 11:13:28;;;;;;;0.20;0.20;;;10.00;99.90;;;;;;4992994;28;20026;-74
2023/03/25 11:15:58;;;;;;;0.20;0.20;;;10.10;99.90;;;;;;4991516;28;20034;-74
2023/03/25 11:18:34;;;;;;;0.20;0.20;;;10.20;99.90;;;;;;5012532;28;20037;-73
2023/03/25 11:21:05;;;;;;;0.20;0.20;;;10.10;99.90;;;;;;5011366;28;20026;-73
2023/03/25 11:23:36;;;;;;;0.20;0.20;;;10.10;99.90;;;;;;5012411;28;20398;-73
2023/03/25 11:26:29;;;;;;;0.20;0.20;;;10.00;99.90;;;;;;5012801;28;20107;-74
2023/03/25 11:28:59;;;;;;;0.20;0.20;;;10.20;99.90;;;;;;5011413;28;20022;-74
2023/03/25 11:31:26;;;;;;;0.20;0.20;;;10.30;99.90;;;;;;5012944;28;20507;-73
2023/03/25 11:34:09;;;;;;;0.10;0.10;;;10.40;99.90;;;;;;5013204;28;20048;-73
2023/03/25 11:36:36;;;;;;;0.15;0.15;;;10.50;99.90;;;;;;5016589;28;20041;-74
2023/03/25 11:39:23;;;;;;;0.20;0.20;;;10.60;99.90;;;;;;5016185;28;20030;-74
2023/03/25 11:41:50;;;;;;;0.10;0.10;;;10.40;99.90;;;;;;5016582;28;20038;-73
2023/03/25 11:44:20;;;;;;;0.20;0.20;;;10.20;99.90;;;;;;5016575;28;20376;-73
2023/03/25 11:46:52;;;;;;;0.20;0.20;;;10.20;99.90;;;;;;5016080;28;20483;-74
2023/03/25 11:49:21;;;;;;;0.10;0.10;;;10.30;99.90;;;;;;5015535;28;20103;-73
2023/03/25 11:51:49;;;;;;;0.10;0.10;;;10.30;99.90;;;;;;5016058;28;20033;-74
2023/03/25 11:54:16;;;;;;;0.20;0.20;;;10.30;99.90;;;;;;5016092;28;20403;-73
2023/03/25 11:56:47;;;;;;;0.17;0.17;;;10.10;99.90;;;;;;5015553;28;20022;-73
2023/03/25 11:59:22;;;;;;;0.10;0.10;;;9.90;99.90;;;;;;5015699;28;20049;-73
2023/03/25 12:01:49;;;;;;;0.20;0.20;;;9.90;99.90;;;;;;5014628;28;20026;-73
2023/03/25 12:04:23;;;;;;;0.17;0.17;;;9.90;99.90;;;;;;5015908;28;20025;-73
2023/03/25 12:07:00;;;;;;;0.20;0.20;;;10.00;99.90;;;;;;5015916;28;20022;-73
2023/03/25 12:09:28;;;;;;;0.10;0.10;;;10.10;99.90;;;;;;5015908;28;20630;-73
2023/03/25 12:12:05;;;;;;;0.10;0.10;;;10.10;99.90;;;;;;5015189;28;20109;-73
2023/03/25 12:14:39;;;;;;;0.10;0.10;;;9.90;99.90;;;;;;5015708;28;20476;-73
2023/03/25 12:17:29;;;;;;;0.20;0.20;;;9.80;99.90;;;;;;5015327;28;20034;-74
2023/03/25 12:20:13;;;;;;;0.20;0.20;;;9.70;99.90;;;;;;5015179;28;20026;-74
2023/03/25 12:23:02;;;;;;;0.20;0.20;;;9.80;99.90;;;;;;5015507;28;20029;-74
2023/03/25 12:25:46;;;;;;;0.20;0.20;;;9.90;99.90;;;;;;5015412;28;20030;-74
2023/03/25 12:28:23;;;;;;;;;;;10.00;99.90;;;;;;5015075;28;20026;-75
2023/03/25 12:31:31;;;;;;;0.20;0.20;;;10.50;99.90;;;;;;5015308;28;19905;-75
2023/03/25 12:34:07;;;;;;;0.20;0.20;;;10.50;99.90;;;;;;5015114;28;20025;-75
2023/03/25 12:36:54;;;;;;;0.20;0.20;;;10.20;99.90;;;;;;5014175;28;20395;-74
2023/03/25 12:39:32;;;;;;;0.20;0.20;;;9.90;99.90;;;;;;5014959;28;20026;-74
2023/03/25 12:42:04;;;;;;;0.10;0.10;;;9.80;99.90;;;;;;5014881;28;20057;-74
2023/03/25 12:45:05;;;;;;;0.10;0.10;;;9.80;99.90;;;;;;5015162;28;20072;-74
2023/03/25 12:47:41;;;;;;;0.13;0.13;;;9.70;99.90;;;;;;5013794;28;20479;-74
2023/03/25 12:50:21;;;;;;;0.20;0.20;;;9.50;99.90;;;;;;5014239;28;20037;-74
2023/03/25 12:53:09;;;;;;;0.20;0.20;;;9.70;99.90;;;;;;5014808;28;20033;-74
2023/03/25 12:55:50;;;;;;;0.20;0.20;;;9.90;99.90;;;;;;5014870;28;20105;-74
2023/03/25 12:58:44;;;;;;;0.10;0.10;;;10.30;99.90;;;;;;5013327;28;20557;-74
2023/03/25 13:01:21;;;;;;;0.20;0.20;;;10.10;99.90;;;;;;5014779;28;20455;-74
2023/03/25 13:04:15;;;;;;;0.20;0.20;;;9.90;99.90;;;;;;5014991;28;20054;-74
2023/03/25 13:07:04;;;;;;;0.20;0.20;;;9.70;99.90;;;;;;5014980;28;20117;-74
2023/03/25 13:09:33;;;;;;;0.10;0.10;;;9.50;99.90;;;;;;5014447;28;20022;-74
2023/03/25 13:12:30;;;;;;;0.20;0.20;;;9.60;99.90;;;;;;5013927;28;20096;-74
2023/03/25 13:15:19;;;;;;;0.20;0.20;;;9.50;99.90;;;;;;5013420;28;20017;-74
2023/03/25 13:18:12;;;;;;;0.13;0.13;;;9.40;99.90;;;;;;5014430;28;20050;-74
2023/03/25 13:20:49;;;;;;;0.10;0.10;;;9.50;99.90;;;;;;5014346;28;20168;-74
2023/03/25 13:23:20;;;;;;;0.10;0.10;;;9.60;99.90;;;;;;5014420;28;20029;-76